This is the latest recevied weather packets stored in our database for station/object WK1F-2. If no packets are shown the sender has not sent any weather packets the latest 1 day(s).
| Time | Temp. | Humidity | Pressure | Rain* | Wind** | Luminosity | Snow |
|---|---|---|---|---|---|---|---|
| 1778086351 | 28.89° C | 50% | 1016.5 hPa | 0 mm | - | - | - |
| 1778080050 | 26.67° C | 56% | 1016.7 hPa | 0 mm | - | - | - |
| 1778078550 | 26.11° C | 59% | 1016.8 hPa | 0 mm | - | - | - |
| 1778077950 | 25.56° C | 60% | 1016.7 hPa | 0 mm | - | - | - |
| 1778077650 | 25.56° C | 60% | 1016.6 hPa | 0 mm | - | - | - |
| 1778077350 | 25.56° C | 62% | 1016.7 hPa | 0 mm | - | - | - |
| 1778077050 | 25° C | 61% | 1016.8 hPa | 0 mm | - | - | - |
| 1778076750 | 25° C | 62% | 1016.6 hPa | 0 mm | - | - | - |
| 1778076150 | 25° C | 63% | 1016.6 hPa | 0 mm | - | - | - |
| 1778075850 | 25° C | 64% | 1016.6 hPa | 0 mm | - | - | - |
| 1778075250 | 24.44° C | 66% | 1016.8 hPa | 0 mm | - | - | - |
| 1778074950 | 24.44° C | 67% | 1016.7 hPa | 0 mm | - | - | - |
| 1778074650 | 24.44° C | 70% | 1016.8 hPa | 0 mm | - | - | - |
| 1778074350 | 23.89° C | 71% | 1016.6 hPa | 0 mm | - | - | - |
| 1778074050 | 23.89° C | 73% | 1016.6 hPa | 0 mm | - | - | - |
| 1778073750 | 23.33° C | 73% | 1016.7 hPa | 0 mm | - | - | - |
| 1778073450 | 23.33° C | 73% | 1016.6 hPa | 0 mm | - | - | - |
| 1778073150 | 23.33° C | 74% | 1016.5 hPa | 0 mm | - | - | - |
| 1778072850 | 22.78° C | 75% | 1016.6 hPa | 0 mm | - | - | - |
| 1778072550 | 22.78° C | 76% | 1016.6 hPa | 0 mm | - | - | - |
| 1778064149 | 16.11° C | 90% | 1015.6 hPa | 0 mm | - | - | - |
| 1778063849 | 16.11° C | 90% | 1015.7 hPa | 0 mm | - | - | - |
| 1778062949 | 16.67° C | 89% | 1015.5 hPa | 0 mm | - | - | - |
| 1778062649 | 16.67° C | 89% | 1015.6 hPa | 0 mm | - | - | - |
| 1778062349 | 16.67° C | 89% | 1015.6 hPa | 0 mm | - | - | - |
* Rain latest hour (hover to see other rain measurements)
** Current wind speed in m/s (hover to see current wind gust speed)